UVAGARNER FIELD
METARs for nearby airports:
N 0 941' KUVA 182215Z 10009KT 10SM CLR 37/17 A2990
E 30 930' KHDO 182151Z VRB06G22KT 10SM CLR 37/17 A2991
S 41 598' KCZT 182215Z 12006KT 10SM CLR 38/15 A2984
E 47 773' KCVB 182155Z 07006KT 7SM CLR 37/15 A2992
NW 49 2372' KECU 182215Z VRB05G14KT 10SM CLR 33/16 A3003
SE 53 474' KCOT 182153Z 12013G16KT 10SM CLR 38/17 A2987
W 54 1081' KDLF 182156Z 11005KT 10SM CLR 38/16 A2987
NE 57 1616' KERV 182215Z 20007G14KT 10SM CLR 36/15 A2994
E 61 690' KSKF 182156Z 09007KT 10SM CLR 37/17 A2989
W 62 1002' KDRT 182153Z 16010KT 10SM CLR 37/18 A2987
E 66 430' KPEZ 182215Z 17007KT 110V180 10SM CLR 39/13 A2988
E 67 577' KSSF 182153Z 17008KT 10SM CLR 38/14 A2988
E 69 809' KSAT 182151Z 18010KT 10SM FEW080 BKN250 37/16 A2991
N 78 1753' KJCT 182151Z 19008KT 10SM CLR 37/15 A2994
E 79 762' KRND 182156Z 15005KT 10SM CLR 37/15 A2991
E 93 658' KBAZ 182151Z 22007KT 10SM CLR 38/16 A2989
NW 95 2139' KSOA 182155Z 18010G16KT 10SM CLR 36/13 A3001
TAFs for nearby airports:
W 54 1081' KDLF TAF
  AMD KDLF 172340Z 1723/1824 16010G15KT 9999 FEW040 FEW250 QNH2992INS
  BECMG 1723/1724 13006KT 9999 FEW250 QNH2990INS
  BECMG 1814/1815 14009KT 9999 SCT020 SCT250 QNH2996INS
  BECMG 1819/1820 14012KT 9999 FEW070 SCT250 QNH2984INS TX37/1820Z TN24/1811Z LAST NO
  AMDS AFT 1723 NEXT 1918
E 61 690' KSKF TAF KSKF 181800Z 1818/1924 16009KT 9999 SKC QNH2985INS
  BECMG 1911/1912 VRB06KT 9999 SCT010 SCT020 QNH2990INS
  TEMPO 1912/1915 BKN010
  BECMG 1915/1916 16010G15KT 9999 SKC QNH2978INS TX39/1820Z TN24/1912Z
W 62 1002' KDRT TAF KDRT 181720Z 1818/1918 13010KT P6SM FEW250
E 67 577' KSSF TAF KSSF 181720Z 1818/1918 20006KT P6SM FEW040 SCT250
  FM182000 15012KT P6SM FEW060 SCT250
  FM191100 17007KT P6SM FEW030 SCT250
E 69 809' KSAT TAF KSAT 181720Z 1818/1924 20006KT P6SM FEW040 SCT250
  FM182000 15012KT P6SM FEW060 SCT250
  FM191100 17007KT P6SM FEW030 SCT250
N 78 1753' KJCT KJCT 181959Z 1820/1918 17008KT P6SM FEW250
  FM191600 20011G15KT P6SM FEW070 SCT250
E 79 762' KRND TAF
  AMD KRND 162319Z 1623/1723 18010G15KT 9999 SKC QNH2994INS
  BECMG 1701/1702 15012KT 9999 FEW030 QNH2996INS
  BECMG 1705/1706 18006KT 9999 SCT020 QNH3003INS
  TEMPO 1710/1713 BKN015
  BECMG 1716/1717 19010G15KT 9999 FEW150 QNH3000INS TX38/1721Z TN27/1712Z LAST NO
  AMDS AFT 1700 NEXT 2009
NW 95 2139' KSOA KSOA 181959Z 1820/1918 17009KT P6SM SCT250
  FM191500 20011G18KT P6SM FEW080 SCT250
Area forecast:
000
FAUS44 KKCI 101845
FA4W  
DFWC FA 101845
SYNOPSIS AND VFR CLDS/WX
SYNOPSIS VALID UNTIL 111300
CLDS/WX VALID UNTIL 110700...OTLK VALID 110700-111300
OK TX AR TN LA MS AL
.
SEE AIRMET SIERRA FOR IFR CONDS AND MTN OBSCN.
TS IMPLY SEV OR GTR TURB SEV ICE LLWS AND IFR CONDS.
NON MSL HGTS DENOTED BY AGL OR CIG.
.
SYNOPSIS...LOW PRES OVR SERN MO WITH CDFNT THRU ERN AR-NERN
LA-NWRN GLFMEX. BY 13Z LOW OVR SERN IN WITH CDFNT THRU E MIDDLE
TN-NERN AL-SERN MA-SERN LA-NWRN GLFMEX.
.
OK
PNHDL-W...SKC. TIL 22Z OCNL SCT060 WND N G25KT. OTLK...VFR.
CNTRL-SE....SCT-BKN040 TOP 100. 22Z SCT040. 02Z SKC. OTLK...VFR.
NERN...BKN030 TOP 060. 22Z SCT-BKN040. 01Z SCT040. OTLK...XTRM
NERN MVFR BR ELSW VFR.
.
NWRN TX
PNHDL...SKC. OTLK...VFR.
S PLAINS...SCT150. S PTN OCNL SCT070. 22Z N PTN SKC. 02Z S PTN
SKC. OTLK...VFR.
.
SWRN TX
MTNS WWD...
N PTN.. SCT120 SCT CI. 01Z SKC. OTLK...VFR.
S PTN..BKN090 TOP 120. 23Z SCT080-100. OTLK...VFR.
RMNDR...
W PTN..SCT-BKN080 TOP 140. 23Z SCT080. OTLK...VFR.
E PTN..BKN050-070 TOP 150. ISOL -SHRA. 02Z N PTN SCT080. S PTN
BKN060 TOP 160. OTLK...VFR.
.
N CNTRL TX
SCT060-080 SCT CI. 23Z SCT120-140. OTLK...VFR.
.
NERN TX
SCT025 SCT-BKN060 TOP 120. 23Z SCT120-140. OTLK...VFR.
.
SERN TX
CSTL SXNS...BKN025 TOP 160. CSTLN ISOL -TSRA. CB TOP FL400.
23Z SCT025 SCT-BKN060 TOP 120. 03Z SCT040. OTLK...VFR.
INLAND...SCT040 SCT140 SCT-BKN CI. 01Z SCT150 SCT CI. OTLK...VFR.
.
S CNTRL TX
CSTL PLAINS-LWR RIOGD...
VCNTY CSTLN..BKN020 TOP FL180. WDLY SCT -SHRA/ISOL -TSRA. CB TOP
FL450. BECMG 2123 BKN020 TOP 140.  05Z BKN040. OTLK...VFR.
INLAND..BKN035 TOP 120. BECMG 0305 BKN040 TOP 100. OTLK...VFR.
HILL COUNTRY...BKN070 TOP FL200. 23Z SCT070 BKN120. 03Z SCT070
SCT120. OTLK...VFR.
RMNDR...
N PTN..BKN040 TOP 120. 23Z SCT-BKN050 TOP 100. 03Z SCT060 SCT CI.
OTLK...VFR.
S PTN..BKN030 TOP 160. TIL 21Z WDLY SCT -SHRA. OTLK...MVFR CIG.
.
AR
NW...OVC030 TOP FL180. BECMG 0204 SCT030. OTLK...XTRM N MVFR CIG
09Z IFR CIG BR ELSW VFR.
SW...SCT030 SCT140. 00Z SCT100 SCT CI. OTLK...VFR.
E HLF...BKN040 TOP 160. ISOL -TSRA. CB TOP FL420. 01Z SCT030
SCT120. OTLK...VFR 09Z MVFR BR.
.
LA
N-CNTRL...SCT025 SCT-BKN050 TOP 100. 21Z E PTN TOP 140. ISOL
-TSRA. CB TOP FL450. 02Z SCT CI. OTLK...VFR.
S...BKN-SCT025 BKN050 TOP FL210. WDLY SCT -SHRA/ISOL -TSRA. CB
TOP FL450. BECMG 0204 SCT025 SCT140 SCT-BKN CI. OTLK...W PTN VFR
10Z MVFR CIG BR E PTN MVFR BR 10Z IFR CIG BR.
.
TN
W...BKN040 TOP 160. ISOL -TSRA. CB TOP FL420. BECMG 0103
BKN-SCT025 TOP 120. OTLK...MVFR CIG BR.
MIDDLE...OVC030 TOP FL200. WDLY SCT -SHRA/TSRA. CB TOP FL450. 00Z
BKN040 TOP 140. WDLY SCT -SHRA/ISOL -TSRA. CB TOP FL420.
05Z OCNL VIS 3SM BR. OTLK...MVFR CIG BR 09Z IFR CIG BR.
E...SCT025 BKN040 TOP FL250. WDLY SCT -SHRA/TSRA. CB TOP FL450.
BECMG 0305 BKN040. WDLY SCT -SHRA. OCNL VIS 3SM BR. OTLK...MVFR
CIG SHRA BR 09Z IFR CIG BR.
.
MS AL
N-CNTRL PTN...
W MS..BKN-SCT040 TOP 140. ISOL -SHRA/TSRA. CB TOP FL420.
BECMG 0204 BKN035 TOP 100. OTLK...MVFR CIG BR.
ELSW..BKN-SCT025 BKN040 TOP FL240. WDLY SCT -SHRA/TSRA. CB TOP
FL450. BECMG 0002 BKN040 TOP 140. ISOL -SHRA/TSRA.
06Z BKN010-020 TOP 060. OCNL VIS 3SM BR. OTLK...MVFR CIG BR
09Z IFR CIG BR.
S PTN...BKN025 TOP FL220. WDLY SCT -SHRA. ISOL -TSRA. CB TOP
FL450. BECMG 0305 SCT020 SCT100. OCNL VIS 3SM BR. OTLK...MVFR BR
09Z IFR CIG BR.
.
THE AREA FORECAST WILL TERMINATE AT 2359Z ON 10 OCTOBER 2017. IN
PLACE OF THE AREA FORECAST PLEASE SEE THE GRAPHICAL FORECAST AT
WWW.AVIATIONWEATHER.GOV/GFA. GRAPHICAL AND TEXT AIRMETS WILL
CONTINUE AS REGULARLY SCHEDULED.
....

Shortcut to this page: http://wxbay.com.

Data may contain errors.